Aérodrome :
LOGIN :

S'inscrire | Disclaimer

   EN    FR    IT 

 










Légende :    VFR   VFR Marginal   IFR   IFR Intensif   IFR Très Intensif
Visi : 
Plafond : 
>= 8 km
>= 3000ft
5 à 8 km
1000 à 3000 ft
1500m à 5 km
500 à 1000 ft
800 à 1500m
200 à 500 ft
< 800m
< 200 ft
Symboles :   Orages  Brouillard  Fortes neiges  Fortes précipitations  Vent > 20 kt
SIGMETs :   Divers  Orages  Givrage  Turbulence  Onde Orograph.  Cendres Volcan.







- Altitude de l'aérodrome : 348 ft
- Code IATA : STN
- Voir les cartes d'approche


EGSS - London Stansted

DERNIER METAR :
  • 200320Z AUTO 34004KT 1900 -RA BKN002 OVC007 06/06 Q1017

METARs EXPIRÉS :
  • 200250Z AUTO 34004KT 3900 -RADZ BKN002 OVC005 06/06 Q1017
  • 200220Z AUTO 01004KT 2600 -DZ BKN002 OVC025 07/07 Q1017 RERA REDZ
  • 200150Z AUTO 01005KT 3100 RADZ BKN002 OVC043 07/07 Q1017
  • 200120Z AUTO 35005KT 2100 DZ OVC002 07/07 Q1017 RERA
  • 200050Z AUTO 36006KT 2500 -RADZ OVC002 07/07 Q1017 RERA REDZ

TAF TAF EGSS
Valide du 20 à 00h jusqu'au 21 à 06h UTC


192302Z 2000/2106 34009KT 2000 BR BKN003
TEMPO 2000/2011 1200 DZ
PROB40 2000/2010 0300 FG OVC001
BECMG 2011/2014 9999 NSW BKN018
TEMPO 2011/2014 RADZ
TEMPO 2011/2020 35015G25KT
TEMPO 2014/2020 8000 -SHRA BKN010
TEMPO 2020/2106 BKN009
ATIS : +44 1279 669 325
Pas de NOTAMs connus pour ce terrain.



MET'MAP, la Météo Aéronautique d'un coup d'oeil ! - Copyright ORBIFLY Décembre 2007 - Disclaimer

ORBIFLY MET'MAP TEAM :

Programmation & Développement : Alexandra Zaïnal
Conception & Développement : Baudouin d'Aumeries
Co-Programmation & Développement : Marc-Olivier Méhu
Soutien technique & logistique : Manuel Goepfert

Contact : metmap@orbifly.com




SOURCES & CREDITS :

   NOAA